Big Bear Station Historical Data
Daily Summary for August 8, 2017 Units:  English    Metric   Both
« Previous Day
Next Day »
Daily Weekly Monthly Yearly Custom
  High: Low: Average:
Temperature: 82.8 °F 49.3 °F 64.6 °F
Dew Point: 44.2 °F 30.2 °F 38.8 °F
Humidity: 68 % 23 % 42 %
Wind Speed: 5.8 mph 0.0 mph 1.8 mph
Wind Gust: -999.0 mph - -
Wind:- - SSW
Pressure: 30.29 in 30.24 in -
Precipitation: 0.00 in    
Historical Graphs
 
 
Tabular Data for August 8, 2017
Time Temperature Dew Point Pressure Wind Wind Speed Wind Gust Humidity Rainfall Rate (Hourly)
00:00 57.0 °F 30.3 °F 30.28 in South 2.2 mph -999.0 mph 36 % 0 in
00:15 56.1 °F 30.2 °F 30.28 in South 1.7 mph -999.0 mph 37 % 0 in
00:30 55.9 °F 32.5 °F 30.28 in South 1.7 mph -999.0 mph 41 % 0 in
00:46 55.4 °F 33.3 °F 30.28 in SSE 1.7 mph -999.0 mph 43 % 0 in
01:01 55.0 °F 35.1 °F 30.28 in South 2.2 mph -999.0 mph 47 % 0 in
01:16 54.9 °F 37.6 °F 30.28 in South 2.2 mph -999.0 mph 52 % 0 in
01:31 54.1 °F 37.3 °F 30.27 in SSE 1.7 mph -999.0 mph 53 % 0 in
01:46 54.0 °F 37.3 °F 30.27 in SSE 1.7 mph -999.0 mph 53 % 0 in
02:02 53.6 °F 35.9 °F 30.27 in SSW 1.7 mph -999.0 mph 51 % 0 in
02:17 53.4 °F 37.6 °F 30.27 in South 1.7 mph -999.0 mph 55 % 0 in
02:32 53.2 °F 37.0 °F 30.27 in South 1.1 mph -999.0 mph 54 % 0 in
02:48 52.9 °F 36.7 °F 30.27 in South 2.2 mph -999.0 mph 54 % 0 in
03:04 52.5 °F 37.7 °F 30.27 in Calm   -999.0 mph 57 % 0 in
03:19 52.3 °F 38.0 °F 30.27 in South 2.2 mph -999.0 mph 58 % 0 in
03:34 52.0 °F 36.8 °F 30.27 in South 1.1 mph -999.0 mph 56 % 0 in
03:49 51.6 °F 38.2 °F 30.27 in Calm   -999.0 mph 60 % 0 in
04:04 51.6 °F 37.7 °F 30.27 in Calm   -999.0 mph 59 % 0 in
04:20 51.3 °F 35.2 °F 30.27 in Calm   -999.0 mph 54 % 0 in
04:35 51.1 °F 36.4 °F 30.27 in Calm   -999.0 mph 57 % 0 in
04:50 50.9 °F 37.1 °F 30.27 in Calm   -999.0 mph 59 % 0 in
05:05 50.7 °F 35.6 °F 30.27 in Calm   -999.0 mph 56 % 0 in
05:21 50.5 °F 36.7 °F 30.27 in Calm   -999.0 mph 59 % 0 in
05:36 50.0 °F 38.3 °F 30.27 in Calm   -999.0 mph 64 % 0 in
05:51 50.0 °F 38.3 °F 30.27 in Calm   -999.0 mph 64 % 0 in
06:07 49.6 °F 35.0 °F 30.27 in Calm   -999.0 mph 57 % 0 in
06:22 49.3 °F 37.2 °F 30.27 in Calm   -999.0 mph 63 % 0 in
06:37 49.6 °F 37.5 °F 30.28 in Calm   -999.0 mph 63 % 0 in
06:52 49.6 °F 37.5 °F 30.28 in Calm   -999.0 mph 63 % 0 in
07:08 49.8 °F 38.1 °F 30.28 in Calm   -999.0 mph 64 % 0 in
07:23 50.5 °F 38.8 °F 30.29 in Calm   -999.0 mph 64 % 0 in
07:38 51.3 °F 40.3 °F 30.28 in Calm   -999.0 mph 66 % 0 in
07:54 51.6 °F 40.6 °F 30.29 in Calm   -999.0 mph 66 % 0 in
08:09 52.9 °F 41.1 °F 30.29 in Calm   -999.0 mph 64 % 0 in
08:24 54.5 °F 44.2 °F 30.29 in Calm   -999.0 mph 68 % 0 in
08:39 57.4 °F 40.4 °F 30.29 in Calm   -999.0 mph 53 % 0 in
08:55 62.6 °F 33.8 °F 30.29 in Calm   -999.0 mph 34 % 0 in
09:10 65.3 °F 35.5 °F 30.29 in West 2.7 mph -999.0 mph 33 % 0 in
09:25 66.9 °F 36.9 °F 30.29 in NW 2.7 mph -999.0 mph 33 % 0 in
09:41 68.5 °F 35.8 °F 30.29 in West 2.2 mph -999.0 mph 30 % 0 in
09:56 69.6 °F 35.0 °F 30.29 in SSE 2.2 mph -999.0 mph 28 % 0 in
10:11 70.2 °F 36.5 °F 30.29 in Calm   -999.0 mph 29 % 0 in
10:26 71.1 °F 35.4 °F 30.29 in SSE 2.2 mph -999.0 mph 27 % 0 in
10:42 72.1 °F 39.0 °F 30.29 in North 2.2 mph -999.0 mph 30 % 0 in
10:57 73.8 °F 36.8 °F 30.29 in SSE 3.7 mph -999.0 mph 26 % 0 in
11:12 74.7 °F 38.5 °F 30.29 in SSE 5.8 mph -999.0 mph 27 % 0 in
11:27 76.5 °F 39.1 °F 30.29 in West 2.7 mph -999.0 mph 26 % 0 in
11:43 76.3 °F 39.9 °F 30.29 in WSW 1.7 mph -999.0 mph 27 % 0 in
11:58 76.6 °F 41.1 °F 30.28 in South 1.7 mph -999.0 mph 28 % 0 in
12:13 78.1 °F 42.3 °F 30.28 in NNW 3.2 mph -999.0 mph 28 % 0 in
12:28 79.5 °F 41.6 °F 30.28 in NW 4.7 mph -999.0 mph 26 % 0 in
12:44 79.5 °F 43.5 °F 30.28 in SE 1.7 mph -999.0 mph 28 % 0 in
12:59 80.4 °F 42.4 °F 30.28 in NNW 3.7 mph -999.0 mph 26 % 0 in
13:14 79.9 °F 43.9 °F 30.28 in WNW 2.7 mph -999.0 mph 28 % 0 in
13:30 80.8 °F 43.7 °F 30.28 in WNW 5.3 mph -999.0 mph 27 % 0 in
13:45 80.1 °F 43.1 °F 30.28 in West 3.2 mph -999.0 mph 27 % 0 in
14:00 80.6 °F 43.5 °F 30.27 in NNW 2.7 mph -999.0 mph 27 % 0 in
14:16 79.2 °F 42.3 °F 30.27 in South 4.2 mph -999.0 mph 27 % 0 in
14:31 79.5 °F 42.6 °F 30.27 in South 4.2 mph -999.0 mph 27 % 0 in
14:47 81.3 °F 43.1 °F 30.27 in ESE 3.2 mph -999.0 mph 26 % 0 in
15:02 81.7 °F 43.5 °F 30.26 in NNW 3.7 mph -999.0 mph 26 % 0 in
15:17 79.3 °F 43.4 °F 30.26 in SSE 3.7 mph -999.0 mph 28 % 0 in
15:33 80.1 °F 43.1 °F 30.26 in South 2.2 mph -999.0 mph 27 % 0 in
15:48 79.5 °F 42.6 °F 30.25 in SSW 3.2 mph -999.0 mph 27 % 0 in
16:03 79.3 °F 42.4 °F 30.25 in NE 3.2 mph -999.0 mph 27 % 0 in
16:18 79.3 °F 42.4 °F 30.25 in SW 1.1 mph -999.0 mph 27 % 0 in
16:34 77.4 °F 39.8 °F 30.24 in ESE 4.7 mph -999.0 mph 26 % 0 in
16:49 79.0 °F 40.2 °F 30.25 in SSW 1.7 mph -999.0 mph 25 % 0 in
17:05 81.1 °F 40.9 °F 30.24 in NNE 3.2 mph -999.0 mph 24 % 0 in
17:20 82.8 °F 41.2 °F 30.24 in ESE 3.7 mph -999.0 mph 23 % 0 in
17:35 81.1 °F 42.0 °F 30.24 in SSE 2.2 mph -999.0 mph 25 % 0 in
Big Bear CA Weather
Compliments of Weather Underground - 1.5 mb